createdAt,value
2022-10-11T00:01:28.188Z,38.61
2022-10-11T00:03:32.687Z,38.5
2022-10-11T00:05:36.999Z,39.37
2022-10-11T00:07:41.309Z,40.18
2022-10-11T00:09:45.636Z,40.1
2022-10-11T00:11:49.963Z,39.99
2022-10-11T00:13:54.365Z,39.58
2022-10-11T00:15:58.678Z,40.2
2022-10-11T00:18:07.298Z,39.52
2022-10-11T00:20:11.628Z,39.99
2022-10-11T00:22:15.977Z,40.17
2022-10-11T00:24:20.307Z,38.88
2022-10-11T00:26:24.654Z,40.01
2022-10-11T00:28:29.297Z,39.93
2022-10-11T00:30:33.694Z,40.25
2022-10-11T00:32:38.035Z,39.97
2022-10-11T00:34:42.425Z,39.57
2022-10-11T00:36:46.813Z,39.24
2022-10-11T00:38:51.153Z,39.4
2022-10-11T00:40:55.505Z,39.35
2022-10-11T00:42:59.878Z,39.2
2022-10-11T00:45:04.201Z,39.15
2022-10-11T00:47:08.563Z,38.77
2022-10-11T00:49:12.925Z,39.12
2022-10-11T00:51:17.241Z,38.99
2022-10-11T00:53:21.592Z,39.68
2022-10-11T00:55:25.935Z,39.53
2022-10-11T00:57:30.266Z,38.79
2022-10-11T00:59:34.593Z,39.15
2022-10-11T01:01:39.297Z,39.64
2022-10-11T01:03:43.650Z,39.5
2022-10-11T01:05:48.056Z,39.75
2022-10-11T01:07:52.382Z,39.84
2022-10-11T01:09:56.735Z,39.6
2022-10-11T01:12:01.068Z,39.74
2022-10-11T01:14:05.404Z,39.45
2022-10-11T01:16:10.439Z,39.43
2022-10-11T01:18:14.761Z,39.3
2022-10-11T01:20:19.081Z,39
2022-10-11T01:22:23.385Z,38.88
2022-10-11T01:24:27.720Z,38.42
2022-10-11T01:26:32.148Z,38.7
2022-10-11T01:28:36.804Z,38.66
2022-10-11T01:30:41.197Z,38.63
2022-10-11T01:32:45.519Z,38.27
2022-10-11T01:34:49.885Z,38.51
2022-10-11T01:36:54.207Z,38.78
2022-10-11T01:38:58.553Z,39.53
2022-10-11T01:41:02.913Z,39.77
2022-10-11T01:43:07.244Z,39.87
2022-10-11T01:45:11.564Z,39.92
2022-10-11T01:47:15.904Z,39.9
2022-10-11T01:49:20.246Z,39.65
2022-10-11T01:51:24.544Z,39.73
2022-10-11T01:53:28.922Z,39.66
2022-10-11T01:55:33.246Z,40.14
2022-10-11T01:57:37.539Z,39.89
2022-10-11T01:59:41.865Z,40.02
2022-10-11T02:01:46.497Z,40.47
2022-10-11T02:03:50.847Z,40.69
2022-10-11T02:05:55.186Z,40.56
2022-10-11T02:07:59.541Z,40.75
2022-10-11T02:10:03.902Z,40.81
2022-10-11T02:12:08.267Z,40.48
2022-10-11T02:14:12.581Z,40.4
2022-10-11T02:16:16.899Z,40.35
2022-10-11T02:18:21.257Z,40.38
2022-10-11T02:20:25.572Z,40.51
2022-10-11T02:22:29.921Z,40.13
2022-10-11T02:24:34.247Z,40.16
2022-10-11T02:26:38.584Z,40.14
2022-10-11T02:28:43.164Z,40.2
2022-10-11T02:30:47.563Z,40.28
2022-10-11T02:32:51.908Z,39.58
2022-10-11T02:34:56.215Z,40.13
2022-10-11T02:37:00.541Z,40.01
2022-10-11T02:39:04.925Z,40.16
2022-10-11T02:41:09.213Z,40.13
2022-10-11T02:43:13.566Z,39.65
2022-10-11T02:45:17.857Z,40.08
2022-10-11T02:47:22.164Z,39.9
2022-10-11T02:49:26.511Z,40.08
2022-10-11T02:51:30.814Z,40.17
2022-10-11T02:53:35.161Z,40.1
2022-10-11T02:55:39.474Z,40
2022-10-11T02:57:43.977Z,39.91
2022-10-11T02:59:48.350Z,39.71
2022-10-11T03:01:52.978Z,39.98
2022-10-11T03:03:57.347Z,39.84
2022-10-11T03:06:02.251Z,39.34
2022-10-11T03:08:06.820Z,39.36
2022-10-11T03:10:11.207Z,39.9
2022-10-11T03:12:15.519Z,39.56
2022-10-11T03:14:20.051Z,39.54
2022-10-11T03:16:24.500Z,39.81
2022-10-11T03:18:28.815Z,39.51
2022-10-11T03:20:33.151Z,39.6
2022-10-11T03:22:37.504Z,39.64
2022-10-11T03:24:41.827Z,39.46
2022-10-11T03:26:46.167Z,39.87
2022-10-11T03:28:50.754Z,39.78
2022-10-11T03:30:55.119Z,39.72
2022-10-11T03:32:59.462Z,38.73
2022-10-11T03:35:03.831Z,38.72
2022-10-11T03:37:08.117Z,38.41
2022-10-11T03:39:12.462Z,38.52
2022-10-11T03:41:16.830Z,38.21
2022-10-11T03:43:21.255Z,38.34
2022-10-11T03:45:25.587Z,38.2
2022-10-11T03:47:29.914Z,38.57
2022-10-11T03:49:34.279Z,38.34
2022-10-11T03:51:38.607Z,38.32
2022-10-11T03:53:42.940Z,38.25
2022-10-11T03:55:47.349Z,38.61
2022-10-11T03:57:51.676Z,39.06
2022-10-11T03:59:56.083Z,38.88
2022-10-11T04:02:00.875Z,38.41
2022-10-11T04:04:05.293Z,38.75
2022-10-11T04:06:10.587Z,38.52
2022-10-11T04:08:14.910Z,38.65
2022-10-11T04:10:19.227Z,38.59
2022-10-11T04:12:23.586Z,38.28
2022-10-11T04:14:27.915Z,38.52
2022-10-11T04:16:32.244Z,38.7
2022-10-11T04:18:36.586Z,38.41
2022-10-11T04:20:40.989Z,38.41
2022-10-11T04:22:45.346Z,38.64
2022-10-11T04:24:49.690Z,38.68
2022-10-11T04:26:54.003Z,38.76
2022-10-11T04:28:58.805Z,38.81
2022-10-11T04:31:03.200Z,39.13
2022-10-11T04:33:07.528Z,38.84
2022-10-11T04:35:11.866Z,39.47
2022-10-11T04:37:16.185Z,39.36
2022-10-11T04:39:20.564Z,39.35
2022-10-11T04:41:24.948Z,39.09
2022-10-11T04:43:29.260Z,39.23
2022-10-11T04:45:33.578Z,39.44
2022-10-11T04:47:37.935Z,39.37
2022-10-11T04:49:42.273Z,39.29
2022-10-11T04:51:46.604Z,39.74
2022-10-11T04:53:50.900Z,40.11
2022-10-11T04:55:55.247Z,39.97
2022-10-11T04:57:59.601Z,39.75
2022-10-11T05:00:03.954Z,39.76
2022-10-11T05:02:08.682Z,39.78
2022-10-11T05:04:13.063Z,39.93
2022-10-11T05:06:17.411Z,39.87
2022-10-11T05:08:21.742Z,40.08
2022-10-11T05:10:26.099Z,39.82
2022-10-11T05:12:30.452Z,40.42
2022-10-11T05:14:34.794Z,40.31
2022-10-11T05:16:39.289Z,40.49
2022-10-11T05:18:43.633Z,40.62
2022-10-11T05:20:48.023Z,40.45
2022-10-11T05:22:52.381Z,40.73
2022-10-11T05:24:56.745Z,40.7
2022-10-11T05:27:05.302Z,41.04
2022-10-11T05:29:09.653Z,40.79
2022-10-11T05:31:13.967Z,41.18
2022-10-11T05:33:18.276Z,41.51
2022-10-11T05:35:22.619Z,41.39
2022-10-11T05:37:26.949Z,42.14
2022-10-11T05:39:31.544Z,42.57
2022-10-11T05:41:35.845Z,42.47
2022-10-11T05:43:40.283Z,42.54
2022-10-11T05:45:44.634Z,42.57
2022-10-11T05:47:48.973Z,42.49
2022-10-11T05:49:53.628Z,42.85
2022-10-11T05:51:57.947Z,42.83
2022-10-11T05:54:02.364Z,42.62
2022-10-11T05:56:08.108Z,42.76
2022-10-11T05:58:12.661Z,42.63
2022-10-11T06:00:17.003Z,42.89
2022-10-11T06:02:21.382Z,42.96
2022-10-11T06:04:25.692Z,43.05
2022-10-11T06:06:30.036Z,43.19
2022-10-11T06:08:34.354Z,43.38
2022-10-11T06:10:38.675Z,42.99
2022-10-11T06:12:43.037Z,42.92
2022-10-11T06:14:47.379Z,42.99
2022-10-11T06:16:51.720Z,43.18
2022-10-11T06:18:56.081Z,43.4
2022-10-11T06:21:00.420Z,43.38
2022-10-11T06:23:04.743Z,43.44
2022-10-11T06:25:09.100Z,43.33
2022-10-11T06:27:13.427Z,43.17
2022-10-11T06:29:17.794Z,43.24
2022-10-11T06:31:22.133Z,43.13
2022-10-11T06:33:26.450Z,43.42
2022-10-11T06:35:30.802Z,42.93
2022-10-11T06:37:35.118Z,42.84
2022-10-11T06:39:39.464Z,42.89
2022-10-11T06:41:43.812Z,42.92
2022-10-11T06:43:48.158Z,42.9
2022-10-11T06:45:52.488Z,43.22
2022-10-11T06:47:56.843Z,43.45
2022-10-11T06:50:01.193Z,43.9
2022-10-11T06:52:05.528Z,43.77
2022-10-11T06:54:09.847Z,44.36
2022-10-11T06:56:14.150Z,44.72
2022-10-11T06:58:18.513Z,44.92
2022-10-11T07:00:22.894Z,44.74
2022-10-11T07:02:27.277Z,44.87
2022-10-11T07:04:32.254Z,44.8
2022-10-11T07:06:36.589Z,44.91
2022-10-11T07:08:40.936Z,44.81
2022-10-11T07:10:45.286Z,44.86
2022-10-11T07:12:49.585Z,44.96
2022-10-11T07:14:53.930Z,45.24
2022-10-11T07:16:58.261Z,44.68
2022-10-11T07:19:03.353Z,44.83
2022-10-11T07:21:07.744Z,44.8
2022-10-11T07:23:12.194Z,44.85
2022-10-11T07:25:16.548Z,44.87
2022-10-11T07:27:20.860Z,44.66
2022-10-11T07:29:25.223Z,44.47
2022-10-11T07:31:29.588Z,44.56
2022-10-11T07:33:34.068Z,44.42
2022-10-11T07:35:38.447Z,44.57
2022-10-11T07:37:42.811Z,44.44
2022-10-11T07:39:47.162Z,44.39
2022-10-11T07:41:51.496Z,44.28
2022-10-11T07:43:55.922Z,44.24
2022-10-11T07:46:00.300Z,44.25
2022-10-11T07:48:04.641Z,44.3
2022-10-11T07:50:08.952Z,44.34
2022-10-11T07:52:13.341Z,44.15
2022-10-11T07:54:17.726Z,44.16
2022-10-11T07:56:22.097Z,42.89
2022-10-11T07:58:26.441Z,43.31
2022-10-11T08:00:30.958Z,42.97
2022-10-11T08:02:35.354Z,43.16
2022-10-11T08:04:39.686Z,43.42
2022-10-11T08:06:44.047Z,43.42
2022-10-11T08:08:48.395Z,43.28
2022-10-11T08:10:52.721Z,43.36
2022-10-11T08:13:04.349Z,43.38
2022-10-11T08:15:08.931Z,43.37
2022-10-11T08:17:13.305Z,43.22
2022-10-11T08:19:17.707Z,43.23
2022-10-11T08:21:22.028Z,43.17
2022-10-11T08:23:26.635Z,43.19
2022-10-11T08:25:31.537Z,43.21
2022-10-11T08:27:35.886Z,43.3
2022-10-11T08:29:40.298Z,43.32
2022-10-11T08:31:44.672Z,43.25
2022-10-11T08:33:49.309Z,43.32
2022-10-11T08:35:53.817Z,43.3
2022-10-11T08:37:58.190Z,43.19
2022-10-11T08:40:02.524Z,43.09
2022-10-11T08:42:06.881Z,43.18
2022-10-11T08:44:11.226Z,43.16
2022-10-11T08:46:15.551Z,43.1
2022-10-11T08:48:19.911Z,43.14
2022-10-11T08:50:24.443Z,43.11
2022-10-11T08:52:28.760Z,43.08
2022-10-11T08:54:33.116Z,42.98
2022-10-11T08:56:37.437Z,42.83
2022-10-11T08:58:41.790Z,43.01
2022-10-11T09:00:46.133Z,42.99
2022-10-11T09:03:10.915Z,43.02
2022-10-11T09:05:15.290Z,42.9
2022-10-11T09:07:19.641Z,42.95
2022-10-11T09:09:23.976Z,42.95
2022-10-11T09:11:28.291Z,42.58
2022-10-11T09:13:32.638Z,42.76
2022-10-11T09:15:37.021Z,42.82
2022-10-11T09:17:41.329Z,41.56
2022-10-11T09:19:45.627Z,41.89
2022-10-11T09:21:50.033Z,41.82
2022-10-11T09:23:54.406Z,41.59
2022-10-11T09:25:58.784Z,40.89
2022-10-11T09:28:05.287Z,40.53
2022-10-11T09:30:09.651Z,39.98
2022-10-11T09:32:13.987Z,40.58
2022-10-11T09:34:18.331Z,40.4
2022-10-11T09:36:22.722Z,41.35
2022-10-11T09:38:27.163Z,41.44
2022-10-11T09:40:31.532Z,40.25
2022-10-11T09:42:35.869Z,40.16
2022-10-11T09:44:40.238Z,39.94
2022-10-11T09:46:44.551Z,39.46
2022-10-11T09:48:48.974Z,39.88
2022-10-11T09:50:53.326Z,39.98
2022-10-11T09:52:57.678Z,39.73
2022-10-11T09:55:02.038Z,40.27
2022-10-11T09:57:06.419Z,39.99
2022-10-11T09:59:10.787Z,40.45
2022-10-11T10:01:15.256Z,40
2022-10-11T10:03:19.602Z,40.23
2022-10-11T10:05:23.964Z,40.3
2022-10-11T10:07:28.280Z,39.07
2022-10-11T10:09:32.613Z,39.21
2022-10-11T10:11:37.096Z,39.23
2022-10-11T10:13:41.421Z,38.87
2022-10-11T10:15:45.806Z,38.65
2022-10-11T10:17:50.118Z,38.41
2022-10-11T10:19:54.457Z,38.57
2022-10-11T10:21:59.030Z,38.89
2022-10-11T10:24:03.413Z,37.82
2022-10-11T10:26:09.249Z,38.25
2022-10-11T10:28:13.998Z,37.37
2022-10-11T10:30:18.525Z,37.19
2022-10-11T10:32:22.924Z,37.19
2022-10-11T10:34:27.288Z,37.43
2022-10-11T10:36:31.550Z,37.94
2022-10-11T10:38:35.884Z,37.46
2022-10-11T10:40:40.205Z,37.45
2022-10-11T10:42:44.540Z,36.72
2022-10-11T10:44:48.864Z,36.31
2022-10-11T10:46:53.202Z,36.74
2022-10-11T10:49:55.267Z,36.28
2022-10-11T10:51:59.705Z,35.81
2022-10-11T10:54:04.066Z,35.58
2022-10-11T10:56:09.969Z,36.29
2022-10-11T10:58:20.050Z,36.07
2022-10-11T11:00:24.439Z,36.04
2022-10-11T11:02:42.877Z,35.81
2022-10-11T11:04:47.592Z,35.53
2022-10-11T11:06:51.967Z,35.55
2022-10-11T11:08:56.311Z,35.67
2022-10-11T11:11:00.686Z,35.13
2022-10-11T11:13:05.007Z,35.43
2022-10-11T11:15:09.483Z,34.71
2022-10-11T11:17:13.810Z,35.3
2022-10-11T11:19:18.252Z,34.88
2022-10-11T11:21:22.571Z,34.61
2022-10-11T11:23:27.098Z,34.67
2022-10-11T11:25:31.406Z,34.65
2022-10-11T11:27:35.738Z,34.22
2022-10-11T11:29:40.063Z,34.36
2022-10-11T11:31:44.435Z,34.78
2022-10-11T11:33:50.955Z,34.11
2022-10-11T11:35:55.311Z,35.02
2022-10-11T11:38:07.636Z,34.92
2022-10-11T11:40:11.953Z,34.52
2022-10-11T11:42:16.310Z,34.19
2022-10-11T11:44:28.251Z,34.78
2022-10-11T11:46:32.583Z,34.16
2022-10-11T11:48:36.898Z,33.61
2022-10-11T11:50:41.224Z,33.76
2022-10-11T11:52:45.552Z,33.82
2022-10-11T11:54:49.881Z,33.45
2022-10-11T11:56:54.246Z,33
2022-10-11T11:58:58.609Z,32.79
2022-10-11T12:01:03.790Z,31.74
2022-10-11T12:03:08.327Z,31.99
2022-10-11T12:05:12.688Z,31.98
2022-10-11T12:07:19.042Z,31.64
2022-10-11T12:09:23.315Z,30.8
2022-10-11T12:11:35.418Z,31.33
2022-10-11T12:13:39.847Z,31.48
2022-10-11T12:15:44.189Z,32.16
2022-10-11T12:17:48.582Z,31.7
2022-10-11T12:19:52.898Z,30.87
2022-10-11T12:21:57.247Z,31.12
2022-10-11T12:24:01.605Z,31.14
2022-10-11T12:26:05.938Z,30.76
2022-10-11T12:28:10.488Z,30.77
2022-10-11T12:30:14.917Z,30.99
2022-10-11T12:32:19.272Z,31.32
2022-10-11T12:34:23.684Z,31.54
2022-10-11T12:36:28.093Z,31.06
2022-10-11T12:38:32.879Z,31.15
2022-10-11T12:40:37.233Z,31.09
2022-10-11T12:42:41.605Z,31
2022-10-11T12:44:45.964Z,30.72
2022-10-11T12:46:50.368Z,31.1
2022-10-11T12:48:54.699Z,31.71
2022-10-11T12:51:04.771Z,31.64
2022-10-11T12:53:09.024Z,31.37
2022-10-11T12:55:13.292Z,30.99
2022-10-11T12:57:17.577Z,31.44
2022-10-11T12:59:21.941Z,31.29
2022-10-11T13:01:26.648Z,33.14
2022-10-11T13:03:34.475Z,33.45
2022-10-11T13:05:45.122Z,33.84
2022-10-11T13:07:49.903Z,33.56
2022-10-11T13:09:54.276Z,33.65
2022-10-11T13:11:58.581Z,32.54
2022-10-11T13:14:03.196Z,32.94
2022-10-11T13:16:08.917Z,33.27
2022-10-11T13:18:13.433Z,33.27
2022-10-11T13:20:17.784Z,33.11
2022-10-11T13:22:22.157Z,33.12
2022-10-11T13:24:26.580Z,33.25
2022-10-11T13:26:30.963Z,33
2022-10-11T13:28:38.780Z,32.95
2022-10-11T13:30:43.449Z,33.15
2022-10-11T13:32:47.785Z,33.02
2022-10-11T13:34:52.249Z,32.61
2022-10-11T13:36:56.630Z,32.91
2022-10-11T13:39:00.982Z,32.59
2022-10-11T13:41:05.345Z,32.3
2022-10-11T13:43:09.706Z,32.61
2022-10-11T13:45:14.114Z,31.59
2022-10-11T13:47:18.358Z,32.35
2022-10-11T13:49:22.615Z,31.73
2022-10-11T13:51:26.972Z,32.15
2022-10-11T13:53:31.278Z,31.66
2022-10-11T13:55:35.801Z,31.72
2022-10-11T13:57:40.133Z,31.57
2022-10-11T13:59:44.425Z,31.15
2022-10-11T14:01:49.091Z,30.98
2022-10-11T14:03:53.495Z,31.08
2022-10-11T14:05:57.858Z,31.17
2022-10-11T14:08:02.200Z,31.12
2022-10-11T14:10:06.636Z,30.83
2022-10-11T14:12:10.993Z,30.94
2022-10-11T14:14:15.302Z,30.88
2022-10-11T14:16:19.635Z,30.45
2022-10-11T14:18:24.170Z,29.99
2022-10-11T14:20:34.969Z,30.16
2022-10-11T14:22:39.504Z,30.32
2022-10-11T14:24:43.841Z,29.96
2022-10-11T14:26:48.199Z,30.42
2022-10-11T14:28:52.929Z,30.61
2022-10-11T14:30:57.332Z,30.75
2022-10-11T14:33:01.662Z,30.76
2022-10-11T14:35:06.007Z,31.02
2022-10-11T14:37:10.313Z,31.27
2022-10-11T14:39:14.612Z,31.22
2022-10-11T14:41:18.974Z,30.77
2022-10-11T14:43:23.343Z,30.93
2022-10-11T14:45:27.649Z,30.62
2022-10-11T14:47:31.947Z,30.87
2022-10-11T14:49:36.711Z,30.55
2022-10-11T14:51:41.406Z,30.68
2022-10-11T14:53:45.740Z,30.45
2022-10-11T14:55:50.112Z,30.45
2022-10-11T14:57:54.421Z,30.52
2022-10-11T14:59:58.763Z,30.65
2022-10-11T15:02:03.354Z,30.39
2022-10-11T15:04:07.694Z,30.52
2022-10-11T15:06:12.102Z,30.42
2022-10-11T15:08:16.494Z,30.39
2022-10-11T15:10:20.832Z,30.43
2022-10-11T15:12:25.162Z,30.27
2022-10-11T15:14:29.610Z,30.44
2022-10-11T15:16:34.039Z,30.4
2022-10-11T15:18:38.343Z,30.8
2022-10-11T15:20:42.694Z,31.1
2022-10-11T15:22:46.987Z,31.29
2022-10-11T15:24:53.791Z,32.08
2022-10-11T15:26:58.179Z,32.65
2022-10-11T15:29:02.517Z,32.21
2022-10-11T15:31:06.913Z,32.81
2022-10-11T15:33:11.323Z,32.8
2022-10-11T15:35:15.681Z,32.32
2022-10-11T15:37:20.035Z,32.8
2022-10-11T15:39:24.393Z,33.02
2022-10-11T15:41:28.691Z,33.09
2022-10-11T15:43:33.041Z,32.96
2022-10-11T15:45:37.354Z,32.78
2022-10-11T15:47:41.859Z,32.94
2022-10-11T15:49:46.302Z,33.04
2022-10-11T15:51:50.611Z,32.5
2022-10-11T15:53:54.989Z,32.67
2022-10-11T15:55:59.290Z,32.79
2022-10-11T15:58:03.752Z,32.74
2022-10-11T16:00:08.102Z,32.53
2022-10-11T16:02:12.630Z,32.78
2022-10-11T16:04:17.093Z,32.6
2022-10-11T16:06:21.406Z,32.89
2022-10-11T16:08:25.747Z,31.91
2022-10-11T16:10:30.151Z,31.34
2022-10-11T16:12:34.482Z,31.34
2022-10-11T16:14:38.798Z,31.42
2022-10-11T16:16:43.318Z,31.67
2022-10-11T16:18:47.639Z,31.74
2022-10-11T16:20:52.062Z,31.75
2022-10-11T16:22:56.374Z,31.36
2022-10-11T16:25:00.710Z,31.31
2022-10-11T16:27:05.077Z,31.5
2022-10-11T16:29:09.448Z,31.46
2022-10-11T16:31:13.840Z,31.61
2022-10-11T16:33:18.200Z,31.73
2022-10-11T16:35:22.583Z,31.63
2022-10-11T16:37:26.939Z,31.46
2022-10-11T16:39:31.362Z,31.28
2022-10-11T16:41:35.888Z,31.27
2022-10-11T16:43:40.228Z,31.44
2022-10-11T16:45:44.581Z,32.34
2022-10-11T16:47:48.906Z,31.25
2022-10-11T16:49:53.227Z,30.86
2022-10-11T16:51:57.616Z,31.01
2022-10-11T16:54:02.105Z,31.2
2022-10-11T16:56:08.042Z,31.6
2022-10-11T16:58:12.539Z,31.98
2022-10-11T17:00:16.906Z,32.08
2022-10-11T17:02:21.246Z,32.3
2022-10-11T17:04:25.579Z,32.59
2022-10-11T17:06:29.961Z,32.84
2022-10-11T17:08:34.305Z,33.33
2022-10-11T17:10:38.620Z,33.51
2022-10-11T17:12:49.960Z,33.72
2022-10-11T17:14:54.468Z,34.2
2022-10-11T17:16:58.832Z,34.23
2022-10-11T17:19:03.238Z,34.5
2022-10-11T17:21:07.587Z,34.86
2022-10-11T17:23:12.101Z,35.08
2022-10-11T17:25:16.346Z,35.04
2022-10-11T17:27:20.734Z,34.93
2022-10-11T17:29:25.117Z,34.73
2022-10-11T17:31:29.428Z,34.73
2022-10-11T17:33:33.791Z,34.47
2022-10-11T17:35:38.207Z,34.43
2022-10-11T17:37:42.616Z,34.3
2022-10-11T17:39:47.013Z,33.92
2022-10-11T17:41:51.406Z,33.96
2022-10-11T17:43:55.757Z,33.99
2022-10-11T17:46:00.195Z,33.94
2022-10-11T17:48:04.521Z,32.92
2022-10-11T17:50:08.860Z,32.81
2022-10-11T17:52:13.267Z,33.6
2022-10-11T17:54:17.643Z,34.08
2022-10-11T17:56:35.179Z,33.81
2022-10-11T17:58:41.754Z,32.68
2022-10-11T18:00:46.330Z,33.99
2022-10-11T18:02:51.581Z,33.14
2022-10-11T18:04:55.888Z,33.66
2022-10-11T18:07:00.211Z,33.52
2022-10-11T18:09:04.565Z,33.7
2022-10-11T18:11:09.791Z,33.2
2022-10-11T18:13:17.381Z,33
2022-10-11T18:15:21.711Z,33.15
2022-10-11T18:17:26.051Z,33.1
2022-10-11T18:19:30.376Z,32.58
2022-10-11T18:21:36.772Z,33.49
2022-10-11T18:23:41.109Z,33.37
2022-10-11T18:25:45.632Z,32.23
2022-10-11T18:27:49.987Z,32.56
2022-10-11T18:29:54.354Z,33.28
2022-10-11T18:31:58.700Z,32.61
2022-10-11T18:34:03.029Z,32.07
2022-10-11T18:36:07.396Z,33.17
2022-10-11T18:38:11.783Z,33.82
2022-10-11T18:40:16.152Z,33.88
2022-10-11T18:42:20.474Z,33.45
2022-10-11T18:44:24.846Z,33.76
2022-10-11T18:46:29.199Z,33.63
2022-10-11T18:48:33.620Z,33.97
2022-10-11T18:50:37.989Z,33.83
2022-10-11T18:52:46.461Z,32.86
2022-10-11T18:54:50.797Z,33.66
2022-10-11T18:56:55.108Z,34.03
2022-10-11T18:58:59.458Z,32.97
2022-10-11T19:01:04.059Z,33.66
2022-10-11T19:03:08.488Z,33.5
2022-10-11T19:05:12.867Z,33.77
2022-10-11T19:07:17.211Z,33.6
2022-10-11T19:09:21.575Z,33.63
2022-10-11T19:11:25.917Z,34.03
2022-10-11T19:13:30.257Z,34.62
2022-10-11T19:15:34.576Z,34.47
2022-10-11T19:17:38.927Z,33.59
2022-10-11T19:19:43.266Z,33.86
2022-10-11T19:21:47.761Z,33.96
2022-10-11T19:23:52.138Z,33.88
2022-10-11T19:25:56.509Z,33.66
2022-10-11T19:28:00.856Z,33.58
2022-10-11T19:30:05.277Z,33.44
2022-10-11T19:32:09.639Z,32.91
2022-10-11T19:34:14.033Z,32.62
2022-10-11T19:36:18.531Z,33.5
2022-10-11T19:38:22.881Z,33.45
2022-10-11T19:40:34.143Z,34.19
2022-10-11T19:42:38.547Z,34.24
2022-10-11T19:44:42.991Z,33.85
2022-10-11T19:46:55.306Z,34.32
2022-10-11T19:48:59.749Z,34.61
2022-10-11T19:51:04.134Z,33.83
2022-10-11T19:53:08.523Z,34.11
2022-10-11T19:55:13.025Z,33.91
2022-10-11T19:57:17.405Z,33.83
2022-10-11T19:59:21.749Z,33.56
2022-10-11T20:01:26.523Z,33.12
2022-10-11T20:03:30.895Z,33.29
2022-10-11T20:05:35.325Z,33.49
2022-10-11T20:07:39.785Z,33.55
2022-10-11T20:09:44.109Z,33.16
2022-10-11T20:11:48.445Z,33.43
2022-10-11T20:13:52.757Z,33.31
2022-10-11T20:15:57.106Z,33.42
2022-10-11T20:18:01.428Z,33.63
2022-10-11T20:20:05.792Z,33.62
2022-10-11T20:22:10.135Z,33.65
2022-10-11T20:24:14.485Z,33.63
2022-10-11T20:26:18.851Z,33.47
2022-10-11T20:28:23.303Z,33.55
2022-10-11T20:30:27.743Z,33.55
2022-10-11T20:32:32.059Z,33.74
2022-10-11T20:34:36.398Z,33.96
2022-10-11T20:36:40.938Z,33.71
2022-10-11T20:38:45.991Z,33.68
2022-10-11T20:40:50.473Z,33.72
2022-10-11T20:42:54.847Z,33.6
2022-10-11T20:44:59.161Z,33.52
2022-10-11T20:47:06.242Z,33.37
2022-10-11T20:49:10.567Z,33.35
2022-10-11T20:51:14.946Z,33.33
2022-10-11T20:53:19.258Z,33.26
2022-10-11T20:55:23.610Z,33.25
2022-10-11T20:57:27.928Z,33.31
2022-10-11T20:59:32.414Z,33.26
2022-10-11T21:01:37.199Z,33.26
2022-10-11T21:03:41.532Z,33.29
2022-10-11T21:05:45.921Z,33.28
2022-10-11T21:07:50.258Z,33.19
2022-10-11T21:09:54.581Z,33.19
2022-10-11T21:11:58.935Z,33.11
2022-10-11T21:14:03.284Z,33.09
2022-10-11T21:16:07.614Z,33.08
2022-10-11T21:18:14.799Z,33.11
2022-10-11T21:20:19.121Z,33.14
2022-10-11T21:22:23.503Z,33.12
2022-10-11T21:24:27.841Z,33.05
2022-10-11T21:26:32.202Z,33.1
2022-10-11T21:28:36.814Z,33.19
2022-10-11T21:30:41.163Z,33.13
2022-10-11T21:32:45.509Z,33.14
2022-10-11T21:34:49.842Z,33.2
2022-10-11T21:36:54.160Z,33.19
2022-10-11T21:38:58.471Z,33.18
2022-10-11T21:41:02.815Z,33.14
2022-10-11T21:43:07.170Z,33.28
2022-10-11T21:45:11.503Z,33.38
2022-10-11T21:47:15.849Z,33.46
2022-10-11T21:49:20.191Z,33.45
2022-10-11T21:51:24.535Z,33.42
2022-10-11T21:53:28.872Z,33.52
2022-10-11T21:55:33.194Z,33.39
2022-10-11T21:57:37.518Z,33.34
2022-10-11T21:59:41.827Z,33.37
2022-10-11T22:01:46.389Z,33.34
2022-10-11T22:03:50.920Z,33.32
2022-10-11T22:05:55.403Z,33.29
2022-10-11T22:07:59.933Z,33.28
2022-10-11T22:10:04.562Z,33.3
2022-10-11T22:12:12.112Z,33.28
2022-10-11T22:14:18.765Z,33.39
2022-10-11T22:16:23.305Z,33.51
2022-10-11T22:18:33.874Z,33.6
2022-10-11T22:20:38.457Z,33.66
2022-10-11T22:22:42.938Z,33.75
2022-10-11T22:24:47.437Z,33.77
2022-10-11T22:26:51.967Z,33.65
2022-10-11T22:28:56.746Z,33.67
2022-10-11T22:31:01.314Z,33.67
2022-10-11T22:33:05.855Z,33.55
2022-10-11T22:35:10.361Z,33.56
2022-10-11T22:37:14.866Z,33.58
2022-10-11T22:39:19.624Z,33.63
2022-10-11T22:41:24.189Z,33.55
2022-10-11T22:43:28.673Z,33.62
2022-10-11T22:45:33.234Z,33.59
2022-10-11T22:47:38.939Z,33.59
2022-10-11T22:49:43.554Z,33.54
2022-10-11T22:51:48.080Z,33.53
2022-10-11T22:53:52.582Z,33.47
2022-10-11T22:55:57.193Z,33.47
2022-10-11T22:58:01.685Z,33.47
2022-10-11T23:00:06.254Z,33.41
2022-10-11T23:02:10.737Z,33.48
2022-10-11T23:04:15.243Z,33.47
2022-10-11T23:06:19.723Z,33.52
2022-10-11T23:08:24.253Z,33.51
2022-10-11T23:10:28.767Z,33.56
2022-10-11T23:12:33.263Z,33.8
2022-10-11T23:14:37.785Z,33.65
2022-10-11T23:16:42.271Z,33.62
2022-10-11T23:18:46.829Z,33.64
2022-10-11T23:20:51.341Z,33.68
2022-10-11T23:22:55.824Z,33.77
2022-10-11T23:25:00.321Z,33.7
2022-10-11T23:27:04.796Z,33.79
2022-10-11T23:29:09.289Z,33.83
2022-10-11T23:31:13.853Z,33.91
2022-10-11T23:33:18.342Z,33.89
2022-10-11T23:35:23.148Z,34.02
2022-10-11T23:37:27.698Z,34.07
2022-10-11T23:39:32.227Z,34.14
2022-10-11T23:41:36.750Z,34.08
2022-10-11T23:43:41.241Z,33.96
2022-10-11T23:45:45.790Z,33.85
2022-10-11T23:47:50.294Z,33.98
2022-10-11T23:49:54.828Z,34.04
2022-10-11T23:51:59.338Z,33.84
2022-10-11T23:54:03.835Z,33.81
2022-10-11T23:56:08.281Z,33.84
2022-10-11T23:58:12.583Z,33.78
